Orbital elements of FENGYUN 1C DEB
| Launched | 9 May 1999 |
| Flight ended | – |
| Launch site | Taiyuan Space Center, PRC |
| Owner | People's Republic of China |
| NORAD ID | 29791 |
| Date fetched |
Epoch osculation |
Inc. [°] |
Ecc. | RA asc node [hr] |
Arg Peri. [°] |
Mean anom [°] |
Mean motion [rev/day] |
Abs. mag |
| Date fetched |
Epoch osculation |
Inc. [°] |
Ecc. | RA asc node [hr] |
Arg Peri. [°] |
Mean anom [°] |
Mean motion [rev/day] |
Abs. mag |
| 2026 May 09 17:57 | 2026 May 05 01:01:48 | 99.0318 | 0.00380 | 9.5486 | 348.4398 | 70.1531 | 14.60421 | – |
| 2026 May 08 17:57 | 2026 May 05 01:01:48 | 99.0318 | 0.00380 | 9.5486 | 348.4398 | 70.1531 | 14.60421 | – |
| 2026 May 07 17:58 | 2026 May 05 01:01:48 | 99.0318 | 0.00380 | 9.5486 | 348.4398 | 70.1531 | 14.60421 | – |
| 2026 May 06 17:57 | 2026 May 05 01:01:48 | 99.0318 | 0.00380 | 9.5486 | 348.4398 | 70.1531 | 14.60421 | – |
| 2026 May 05 17:57 | 2026 May 05 01:01:48 | 99.0318 | 0.00380 | 9.5486 | 348.4398 | 70.1531 | 14.60421 | – |
| 2026 May 04 17:57 | 2026 Apr 30 14:27:23 | 99.0317 | 0.00385 | 9.2261 | 2.2219 | 70.1531 | 14.60421 | – |
| 2026 May 03 17:57 | 2026 Apr 30 14:27:23 | 99.0317 | 0.00385 | 9.2261 | 2.2219 | 70.1531 | 14.60421 | – |
| 2026 May 02 17:57 | 2026 Apr 30 14:27:23 | 99.0317 | 0.00385 | 9.2261 | 2.2219 | 70.1531 | 14.60421 | – |
| 2026 May 01 17:56 | 2026 Apr 30 14:27:23 | 99.0317 | 0.00385 | 9.2261 | 2.2219 | 70.1531 | 14.60421 | – |
| 2026 Apr 30 17:56 | 2026 Apr 30 14:27:23 | 99.0317 | 0.00385 | 9.2261 | 2.2219 | 70.1531 | 14.60421 | – |
| 2026 Apr 29 17:57 | 2026 Apr 24 06:39:03 | 99.0338 | 0.00392 | 8.7666 | 21.5516 | 70.1531 | 14.60421 | – |
| 2026 Apr 28 17:56 | 2026 Apr 24 06:39:03 | 99.0338 | 0.00392 | 8.7666 | 21.5516 | 70.1531 | 14.60421 | – |
| 2026 Apr 27 17:58 | 2026 Apr 24 06:39:03 | 99.0338 | 0.00392 | 8.7666 | 21.5516 | 70.1531 | 14.60421 | – |
| 2026 Apr 26 17:58 | 2026 Apr 24 06:39:03 | 99.0338 | 0.00392 | 8.7666 | 21.5516 | 70.1531 | 14.60421 | – |
| 2026 Apr 25 17:58 | 2026 Apr 24 06:39:03 | 99.0338 | 0.00392 | 8.7666 | 21.5516 | 70.1531 | 14.60421 | – |
| 2026 Apr 24 17:59 | 2026 Apr 24 06:39:03 | 99.0338 | 0.00392 | 8.7666 | 21.5516 | 70.1531 | 14.60421 | – |
| 2026 Apr 23 17:57 | 2026 Apr 18 19:49:16 | 99.0336 | 0.00398 | 8.3707 | 37.8792 | 70.1531 | 14.60421 | – |
| 2026 Apr 22 17:57 | 2026 Apr 18 19:49:16 | 99.0336 | 0.00398 | 8.3707 | 37.8792 | 70.1531 | 14.60421 | – |
| 2026 Apr 21 17:57 | 2026 Apr 18 19:49:16 | 99.0336 | 0.00398 | 8.3707 | 37.8792 | 70.1531 | 14.60421 | – |
| 2026 Apr 20 17:57 | 2026 Apr 18 19:49:16 | 99.0336 | 0.00398 | 8.3707 | 37.8792 | 70.1531 | 14.60421 | – |
| 2026 Apr 19 17:58 | 2026 Apr 18 19:49:16 | 99.0336 | 0.00398 | 8.3707 | 37.8792 | 70.1531 | 14.60421 | – |
| 2026 Apr 18 17:56 | 2026 Apr 13 07:32:07 | 99.0346 | 0.00402 | 7.9703 | 54.2300 | 70.1531 | 14.60421 | – |
| 2026 Apr 16 17:57 | 2026 Apr 13 07:32:07 | 99.0346 | 0.00402 | 7.9703 | 54.2300 | 70.1531 | 14.60421 | – |
| 2026 Apr 14 17:57 | 2026 Apr 13 07:32:07 | 99.0346 | 0.00402 | 7.9703 | 54.2300 | 70.1531 | 14.60421 | – |
| 2026 Apr 13 17:57 | 2026 Apr 13 07:32:07 | 99.0346 | 0.00402 | 7.9703 | 54.2300 | 70.1531 | 14.60421 | – |
| 2026 Apr 12 17:57 | 2026 Apr 08 14:33:25 | 99.0351 | 0.00405 | 7.6284 | 68.0617 | 70.1531 | 14.60421 | – |